Time,TemperatureF,DewpointF,PressureIn,WindDirection,WindDirectionDegrees,WindSpeedMPH,WindSpeedGustMPH,Humidity,HourlyPrecipIn,Conditions,Clouds,dailyrainin,SoftwareType,DateUTC
2013-03-26 00:00:00,32.1,28.7,29.60,North,5,0.0,0.0,87,0.00,,,0.00,Wunderground v.1.15,2013-03-26 04:00:00,
2013-03-26 00:05:00,31.9,28.5,29.60,North,5,0.0,0.0,87,0.00,,,0.00,Wunderground v.1.15,2013-03-26 04:05:00,
2013-03-26 00:10:00,31.9,28.2,29.60,North,5,0.0,0.0,86,0.00,,,0.00,Wunderground v.1.15,2013-03-26 04:10:00,
2013-03-26 00:15:00,31.8,28.1,29.60,North,5,0.0,0.0,86,0.00,,,0.00,Wunderground v.1.15,2013-03-26 04:15:00,
2013-03-26 00:20:00,31.8,28.4,29.60,North,5,0.0,0.0,87,0.00,,,0.00,Wunderground v.1.15,2013-03-26 04:20:00,
2013-03-26 00:25:00,31.8,28.4,29.60,North,5,0.0,0.0,87,0.00,,,0.00,Wunderground v.1.15,2013-03-26 04:25:00,
2013-03-26 00:30:00,31.6,28.2,29.61,North,5,0.0,0.0,87,0.00,,,0.00,Wunderground v.1.15,2013-03-26 04:30:00,
2013-03-26 00:35:00,31.6,28.2,29.60,North,5,0.0,0.0,87,0.00,,,0.00,Wunderground v.1.15,2013-03-26 04:35:00,
2013-03-26 00:45:00,31.5,28.1,29.61,North,5,0.0,0.0,87,0.00,,,0.00,Wunderground v.1.15,2013-03-26 04:45:00,
2013-03-26 00:50:00,31.5,28.1,29.61,North,5,0.0,0.0,87,0.00,,,0.00,Wunderground v.1.15,2013-03-26 04:50:00,
2013-03-26 00:55:00,31.3,27.6,29.61,North,5,0.0,0.0,86,0.00,,,0.00,Wunderground v.1.15,2013-03-26 04:55:00,
2013-03-26 01:00:00,31.3,27.9,29.61,North,5,0.0,0.0,87,0.00,,,0.00,Wunderground v.1.15,2013-03-26 05:00:00,
2013-03-26 01:10:00,31.2,27.8,29.61,North,5,0.0,0.0,87,0.00,,,0.00,Wunderground v.1.15,2013-03-26 05:10:00,
2013-03-26 01:15:00,31.2,27.8,29.61,North,5,0.0,0.0,87,0.00,,,0.00,Wunderground v.1.15,2013-03-26 05:15:00,
2013-03-26 01:25:00,31.2,28.1,29.61,North,5,0.0,0.0,88,0.00,,,0.00,Wunderground v.1.15,2013-03-26 05:25:00,
2013-03-26 01:30:00,31.0,27.9,29.61,North,5,0.0,0.0,88,0.00,,,0.00,Wunderground v.1.15,2013-03-26 05:30:00,
2013-03-26 01:40:00,31.0,27.6,29.61,North,5,0.0,0.0,87,0.00,,,0.00,Wunderground v.1.15,2013-03-26 05:40:00,
2013-03-26 01:45:00,31.0,27.9,29.61,North,5,0.0,0.0,88,0.00,,,0.00,Wunderground v.1.15,2013-03-26 05:45:00,
2013-03-26 01:50:00,31.0,27.9,29.61,North,5,0.0,0.0,88,0.00,,,0.00,Wunderground v.1.15,2013-03-26 05:50:00,
2013-03-26 01:55:00,31.0,27.9,29.61,North,5,0.0,0.0,88,0.00,,,0.00,Wunderground v.1.15,2013-03-26 05:55:00,
2013-03-26 02:05:00,30.9,27.8,29.61,North,5,0.0,0.0,88,0.00,,,0.00,Wunderground v.1.15,2013-03-26 06:05:00,
2013-03-26 02:10:00,30.9,27.8,29.61,North,5,0.0,0.0,88,0.00,,,0.00,Wunderground v.1.15,2013-03-26 06:10:00,
2013-03-26 02:20:00,30.9,28.0,29.61,North,5,0.0,0.0,89,0.00,,,0.00,Wunderground v.1.15,2013-03-26 06:20:00,
2013-03-26 02:25:00,30.9,27.8,29.61,North,5,0.0,0.0,88,0.00,,,0.00,Wunderground v.1.15,2013-03-26 06:25:00,
2013-03-26 02:30:00,30.9,28.0,29.62,North,5,0.0,0.0,89,0.00,,,0.00,Wunderground v.1.15,2013-03-26 06:30:00,
2013-03-26 02:40:00,30.9,28.0,29.62,North,5,0.0,0.0,89,0.00,,,0.00,Wunderground v.1.15,2013-03-26 06:40:00,
2013-03-26 02:45:00,30.9,28.0,29.62,North,5,0.0,0.0,89,0.00,,,0.00,Wunderground v.1.15,2013-03-26 06:45:00,
2013-03-26 02:50:00,30.9,28.0,29.61,North,5,0.0,0.0,89,0.00,,,0.00,Wunderground v.1.15,2013-03-26 06:50:00,
2013-03-26 02:55:00,31.0,28.1,29.61,North,5,0.0,0.0,89,0.00,,,0.00,Wunderground v.1.15,2013-03-26 06:55:00,
2013-03-26 03:05:00,30.9,27.8,29.61,North,5,0.0,0.0,88,0.00,,,0.00,Wunderground v.1.15,2013-03-26 07:05:00,
2013-03-26 03:10:00,30.9,27.8,29.61,North,5,0.0,0.0,88,0.00,,,0.00,Wunderground v.1.15,2013-03-26 07:10:00,
2013-03-26 03:20:00,30.9,28.0,29.62,North,5,0.0,0.0,89,0.00,,,0.00,Wunderground v.1.15,2013-03-26 07:20:00,
2013-03-26 03:25:00,30.9,27.8,29.62,North,5,0.0,0.0,88,0.00,,,0.00,Wunderground v.1.15,2013-03-26 07:25:00,
2013-03-26 03:30:00,30.9,28.0,29.62,North,5,0.0,0.0,89,0.00,,,0.00,Wunderground v.1.15,2013-03-26 07:30:00,
2013-03-26 03:35:00,30.7,27.8,29.62,North,5,0.0,0.0,89,0.00,,,0.00,Wunderground v.1.15,2013-03-26 07:35:00,
2013-03-26 03:45:00,30.7,27.8,29.62,North,5,0.0,0.0,89,0.00,,,0.00,Wunderground v.1.15,2013-03-26 07:45:00,
2013-03-26 03:50:00,30.7,27.8,29.62,North,5,0.0,0.0,89,0.00,,,0.00,Wunderground v.1.15,2013-03-26 07:50:00,
2013-03-26 04:00:00,30.7,27.8,29.62,North,5,0.0,0.0,89,0.00,,,0.00,Wunderground v.1.15,2013-03-26 08:00:00,
2013-03-26 04:05:00,30.7,27.8,29.62,North,5,0.0,0.0,89,0.00,,,0.00,Wunderground v.1.15,2013-03-26 08:05:00,
2013-03-26 04:10:00,30.7,28.1,29.62,North,5,0.0,0.0,90,0.00,,,0.00,Wunderground v.1.15,2013-03-26 08:10:00,
2013-03-26 04:20:00,30.7,28.1,29.62,North,5,0.0,0.0,90,0.00,,,0.00,Wunderground v.1.15,2013-03-26 08:20:00,
2013-03-26 04:25:00,30.7,28.1,29.62,North,5,0.0,0.0,90,0.00,,,0.00,Wunderground v.1.15,2013-03-26 08:25:00,
2013-03-26 04:30:00,30.7,28.1,29.63,North,5,0.0,0.0,90,0.00,,,0.00,Wunderground v.1.15,2013-03-26 08:30:00,
2013-03-26 04:40:00,30.9,28.3,29.63,North,5,0.0,0.0,90,0.00,,,0.00,Wunderground v.1.15,2013-03-26 08:40:00,
2013-03-26 04:45:00,30.9,28.3,29.63,North,5,0.0,0.0,90,0.00,,,0.00,Wunderground v.1.15,2013-03-26 08:45:00,
2013-03-26 04:50:00,30.9,28.3,29.63,North,5,0.0,0.0,90,0.00,,,0.00,Wunderground v.1.15,2013-03-26 08:50:00,
2013-03-26 05:00:00,30.9,28.3,29.63,North,5,0.0,0.0,90,0.00,,,0.00,Wunderground v.1.15,2013-03-26 09:00:00,
2013-03-26 05:10:00,30.9,28.3,29.64,North,5,0.0,0.0,90,0.00,,,0.00,Wunderground v.1.15,2013-03-26 09:10:00,
2013-03-26 05:15:00,30.9,28.0,29.64,North,5,0.0,0.0,89,0.00,,,0.00,Wunderground v.1.15,2013-03-26 09:15:00,
2013-03-26 05:20:00,30.9,28.0,29.64,North,5,0.0,0.0,89,0.00,,,0.00,Wunderground v.1.15,2013-03-26 09:20:00,
2013-03-26 05:30:00,30.9,28.3,29.64,North,5,0.0,0.0,90,0.00,,,0.00,Wunderground v.1.15,2013-03-26 09:30:00,
2013-03-26 05:35:00,30.9,28.3,29.64,North,5,0.0,0.0,90,0.00,,,0.00,Wunderground v.1.15,2013-03-26 09:35:00,
2013-03-26 05:40:00,31.0,28.4,29.65,North,5,0.0,0.0,90,0.00,,,0.00,Wunderground v.1.15,2013-03-26 09:40:00,
2013-03-26 05:50:00,31.0,28.4,29.65,North,5,0.0,0.0,90,0.00,,,0.00,Wunderground v.1.15,2013-03-26 09:50:00,
2013-03-26 05:55:00,31.0,28.1,29.65,North,5,0.0,0.0,89,0.00,,,0.00,Wunderground v.1.15,2013-03-26 09:55:00,
2013-03-26 06:00:00,31.0,28.1,29.65,North,5,0.0,0.0,89,0.00,,,0.00,Wunderground v.1.15,2013-03-26 10:00:00,
2013-03-26 06:10:00,31.0,28.1,29.66,North,5,0.0,0.0,89,0.00,,,0.00,Wunderground v.1.15,2013-03-26 10:10:00,
2013-03-26 06:15:00,31.0,28.1,29.66,North,5,0.0,0.0,89,0.00,,,0.00,Wunderground v.1.15,2013-03-26 10:15:00,
2013-03-26 06:20:00,31.0,28.4,29.66,North,5,0.0,0.0,90,0.00,,,0.00,Wunderground v.1.15,2013-03-26 10:20:00,
2013-03-26 06:30:00,31.0,28.4,29.66,North,5,0.0,0.0,90,0.00,,,0.00,Wunderground v.1.15,2013-03-26 10:30:00,
2013-03-26 06:35:00,31.0,28.1,29.66,North,5,0.0,0.0,89,0.00,,,0.00,Wunderground v.1.15,2013-03-26 10:35:00,
2013-03-26 06:40:00,31.0,28.1,29.66,North,5,0.0,0.0,89,0.00,,,0.00,Wunderground v.1.15,2013-03-26 10:40:00,
2013-03-26 06:45:00,31.0,28.1,29.66,North,5,0.0,0.0,89,0.00,,,0.00,Wunderground v.1.15,2013-03-26 10:45:00,
2013-03-26 06:55:00,31.0,28.4,29.67,North,5,0.0,0.0,90,0.00,,,0.00,Wunderground v.1.15,2013-03-26 10:55:00,
2013-03-26 07:00:00,31.2,28.6,29.67,North,5,0.0,0.0,90,0.00,,,0.00,Wunderground v.1.15,2013-03-26 11:00:00,
2013-03-26 07:10:00,31.2,28.6,29.67,North,5,0.0,0.0,90,0.00,,,0.00,Wunderground v.1.15,2013-03-26 11:10:00,
2013-03-26 07:15:00,31.3,28.7,29.67,North,5,0.0,0.0,90,0.00,,,0.00,Wunderground v.1.15,2013-03-26 11:15:00,
2013-03-26 07:20:00,31.3,28.7,29.68,North,5,0.0,0.0,90,0.00,,,0.00,Wunderground v.1.15,2013-03-26 11:20:00,
2013-03-26 07:30:00,31.5,28.9,29.68,North,5,0.0,0.0,90,0.00,,,0.00,Wunderground v.1.15,2013-03-26 11:30:00,
2013-03-26 07:35:00,31.5,28.9,29.68,North,5,0.0,0.0,90,0.00,,,0.00,Wunderground v.1.15,2013-03-26 11:35:00,
2013-03-26 07:45:00,31.5,28.9,29.69,North,5,0.0,0.0,90,0.00,,,0.00,Wunderground v.1.15,2013-03-26 11:45:00,
2013-03-26 07:50:00,31.6,29.0,29.69,North,5,0.0,0.0,90,0.00,,,0.00,Wunderground v.1.15,2013-03-26 11:50:00,
2013-03-26 08:00:00,31.8,29.5,29.69,North,5,0.0,0.0,91,0.00,,,0.00,Wunderground v.1.15,2013-03-26 12:00:00,
2013-03-26 08:10:00,31.9,29.8,29.69,North,5,0.0,0.0,92,0.00,,,0.00,Wunderground v.1.15,2013-03-26 12:10:00,
2013-03-26 08:20:00,32.1,30.0,29.69,North,5,0.0,0.0,92,0.00,,,0.00,Wunderground v.1.15,2013-03-26 12:20:00,
2013-03-26 08:25:00,32.1,30.0,29.70,North,5,0.0,0.0,92,0.00,,,0.00,Wunderground v.1.15,2013-03-26 12:25:00,
2013-03-26 08:30:00,32.2,30.1,29.70,North,5,0.0,0.0,92,0.00,,,0.00,Wunderground v.1.15,2013-03-26 12:30:00,
2013-03-26 08:35:00,32.4,30.3,29.70,North,5,0.0,0.0,92,0.00,,,0.00,Wunderground v.1.15,2013-03-26 12:35:00,
2013-03-26 08:45:00,32.8,30.7,29.71,North,5,0.0,0.0,92,0.00,,,0.00,Wunderground v.1.15,2013-03-26 12:45:00,
2013-03-26 08:50:00,33.1,31.0,29.71,North,5,0.0,2.0,92,0.00,,,0.00,Wunderground v.1.15,2013-03-26 12:50:00,
2013-03-26 08:55:00,33.4,31.3,29.71,North,5,0.0,2.0,92,0.00,,,0.00,Wunderground v.1.15,2013-03-26 12:55:00,
2013-03-26 09:05:00,34.0,30.8,29.71,NNE,12,0.0,0.0,88,0.00,,,0.00,Wunderground v.1.15,2013-03-26 13:05:00,
2013-03-26 09:10:00,34.3,30.5,29.71,WNW,289,0.0,1.0,86,0.00,,,0.00,Wunderground v.1.15,2013-03-26 13:10:00,
2013-03-26 09:15:00,34.7,29.2,29.71,WNW,289,1.0,2.0,80,0.00,,,0.00,Wunderground v.1.15,2013-03-26 13:15:00,
2013-03-26 09:25:00,35.3,29.4,29.71,NW,321,1.0,1.0,79,0.00,,,0.00,Wunderground v.1.15,2013-03-26 13:25:00,
2013-03-26 09:30:00,35.6,29.4,29.71,North,350,1.0,4.0,78,0.00,,,0.00,Wunderground v.1.15,2013-03-26 13:30:00,
2013-03-26 09:35:00,35.9,29.4,29.71,NNW,331,1.0,4.0,77,0.00,,,0.00,Wunderground v.1.15,2013-03-26 13:35:00,
2013-03-26 09:45:00,36.3,29.5,29.71,NNE,27,0.0,3.0,76,0.00,,,0.00,Wunderground v.1.15,2013-03-26 13:45:00,
2013-03-26 09:50:00,36.6,29.1,29.71,North,355,1.0,1.0,74,0.00,,,0.00,Wunderground v.1.15,2013-03-26 13:50:00,
2013-03-26 09:55:00,36.9,29.4,29.72,SSW,205,2.0,4.0,74,0.00,,,0.00,Wunderground v.1.15,2013-03-26 13:55:00,
2013-03-26 10:05:00,37.6,28.7,29.72,NNE,12,1.0,2.0,70,0.00,,,0.00,Wunderground v.1.15,2013-03-26 14:05:00,
2013-03-26 10:10:00,38.0,28.4,29.71,NNW,331,3.0,3.0,68,0.00,,,0.00,Wunderground v.1.15,2013-03-26 14:10:00,
2013-03-26 10:20:00,38.9,28.1,29.71,West,275,2.0,2.0,65,0.00,,,0.00,Wunderground v.1.15,2013-03-26 14:20:00,
2013-03-26 10:25:00,39.3,28.1,29.72,North,355,1.0,7.0,64,0.00,,,0.00,Wunderground v.1.15,2013-03-26 14:25:00,
2013-03-26 10:30:00,39.5,27.9,29.72,NNW,336,4.0,4.0,63,0.00,,,0.00,Wunderground v.1.15,2013-03-26 14:30:00,
2013-03-26 10:35:00,39.6,26.8,29.72,East,83,3.0,4.0,60,0.00,,,0.00,Wunderground v.1.15,2013-03-26 14:35:00,
2013-03-26 10:40:00,40.1,27.3,29.72,NW,319,1.0,1.0,60,0.00,,,0.00,Wunderground v.1.15,2013-03-26 14:40:00,
2013-03-26 10:50:00,39.9,26.3,29.72,North,5,2.0,4.0,58,0.00,,,0.00,Wunderground v.1.15,2013-03-26 14:50:00,
2013-03-26 10:55:00,39.6,25.2,29.72,NNW,342,2.0,4.0,56,0.00,,,0.00,Wunderground v.1.15,2013-03-26 14:55:00,
2013-03-26 11:05:00,39.5,25.1,29.72,ENE,78,2.0,2.0,56,0.00,,,0.00,Wunderground v.1.15,2013-03-26 15:05:00,
2013-03-26 11:10:00,39.6,25.6,29.72,NE,36,2.0,7.0,57,0.00,,,0.00,Wunderground v.1.15,2013-03-26 15:10:00,
2013-03-26 11:15:00,39.6,25.2,29.72,NNE,28,3.0,7.0,56,0.00,,,0.00,Wunderground v.1.15,2013-03-26 15:15:00,
2013-03-26 11:25:00,39.8,24.9,29.73,NNW,346,2.0,4.0,55,0.00,,,0.00,Wunderground v.1.15,2013-03-26 15:25:00,
2013-03-26 11:30:00,39.9,25.0,29.72,NNW,342,3.0,3.0,55,0.00,,,0.00,Wunderground v.1.15,2013-03-26 15:30:00,
2013-03-26 11:40:00,39.9,23.7,29.73,North,355,3.0,6.0,52,0.00,,,0.00,Wunderground v.1.15,2013-03-26 15:40:00,
2013-03-26 11:45:00,40.1,25.2,29.73,NW,317,2.0,6.0,55,0.00,,,0.00,Wunderground v.1.15,2013-03-26 15:45:00,
2013-03-26 11:50:00,40.1,23.9,29.73,NNW,331,2.0,2.0,52,0.00,,,0.00,Wunderground v.1.15,2013-03-26 15:50:00,
2013-03-26 11:55:00,40.2,23.5,29.73,NNW,330,2.0,3.0,51,0.00,,,0.00,Wunderground v.1.15,2013-03-26 15:55:00,
2013-03-26 12:05:00,40.5,23.3,29.73,WNW,291,2.0,2.0,50,0.00,,,0.00,Wunderground v.1.15,2013-03-26 16:05:00,
2013-03-26 12:15:00,40.9,23.7,29.73,North,355,1.0,11.0,50,0.00,,,0.00,Wunderground v.1.15,2013-03-26 16:15:00,
2013-03-26 12:20:00,41.1,24.3,29.73,NNW,346,3.0,5.0,51,0.00,,,0.00,Wunderground v.1.15,2013-03-26 16:20:00,
2013-03-26 12:25:00,41.5,24.2,29.73,North,5,2.0,5.0,50,0.00,,,0.00,Wunderground v.1.15,2013-03-26 16:25:00,
2013-03-26 12:30:00,42.1,24.3,29.73,NNW,333,2.0,2.0,49,0.00,,,0.00,Wunderground v.1.15,2013-03-26 16:30:00,
2013-03-26 12:40:00,42.5,23.2,29.73,SSW,200,2.0,2.0,46,0.00,,,0.00,Wunderground v.1.15,2013-03-26 16:40:00,
2013-03-26 12:45:00,42.5,23.7,29.73,South,188,2.0,2.0,47,0.00,,,0.00,Wunderground v.1.15,2013-03-26 16:45:00,
2013-03-26 12:50:00,42.6,24.3,29.73,North,355,3.0,3.0,48,0.00,,,0.00,Wunderground v.1.15,2013-03-26 16:50:00,
2013-03-26 12:55:00,42.6,23.8,29.73,NW,322,4.0,4.0,47,0.00,,,0.00,Wunderground v.1.15,2013-03-26 16:55:00,
2013-03-26 13:05:00,42.6,25.7,29.73,NW,323,1.0,5.0,51,0.00,,,0.00,Wunderground v.1.15,2013-03-26 17:05:00,
2013-03-26 13:10:00,43.1,24.2,29.73,West,272,2.0,2.0,47,0.00,,,0.00,Wunderground v.1.15,2013-03-26 17:10:00,
2013-03-26 13:20:00,42.9,24.5,29.73,SSW,208,2.0,2.0,48,0.00,,,0.00,Wunderground v.1.15,2013-03-26 17:20:00,
2013-03-26 13:25:00,43.2,26.3,29.73,SSW,202,2.0,3.0,51,0.00,,,0.00,Wunderground v.1.15,2013-03-26 17:25:00,
2013-03-26 13:30:00,43.3,22.3,29.73,NW,322,2.0,3.0,43,0.00,,,0.00,Wunderground v.1.15,2013-03-26 17:30:00,
2013-03-26 13:35:00,43.3,23.4,29.73,North,355,2.0,5.0,45,0.00,,,0.00,Wunderground v.1.15,2013-03-26 17:35:00,
2013-03-26 13:45:00,43.1,23.7,29.73,WSW,238,3.0,4.0,46,0.00,,,0.00,Wunderground v.1.15,2013-03-26 17:45:00,
2013-03-26 13:50:00,43.2,21.1,29.73,SSW,198,2.0,2.0,41,0.00,,,0.00,Wunderground v.1.15,2013-03-26 17:50:00,
2013-03-26 13:55:00,43.6,21.4,29.73,North,360,2.0,3.0,41,0.00,,,0.00,Wunderground v.1.15,2013-03-26 17:55:00,
2013-03-26 14:05:00,43.9,20.5,29.73,South,188,4.0,4.0,39,0.00,,,0.00,Wunderground v.1.15,2013-03-26 18:05:00,
2013-03-26 14:10:00,44.2,19.5,29.73,NNW,347,2.0,2.0,37,0.00,,,0.00,Wunderground v.1.15,2013-03-26 18:10:00,
2013-03-26 14:20:00,44.9,20.2,29.72,NNE,13,4.0,4.0,37,0.00,,,0.00,Wunderground v.1.15,2013-03-26 18:20:00,
2013-03-26 14:25:00,44.8,22.5,29.72,WSW,254,3.0,4.0,41,0.00,,,0.00,Wunderground v.1.15,2013-03-26 18:25:00,
2013-03-26 14:30:00,44.5,20.4,29.72,West,271,3.0,3.0,38,0.00,,,0.00,Wunderground v.1.15,2013-03-26 18:30:00,
2013-03-26 14:40:00,43.2,19.9,29.72,NNW,346,2.0,3.0,39,0.00,,,0.00,Wunderground v.1.15,2013-03-26 18:40:00,
2013-03-26 14:45:00,43.6,20.2,29.72,WSW,238,3.0,7.0,39,0.00,,,0.00,Wunderground v.1.15,2013-03-26 18:45:00,
2013-03-26 14:50:00,44.1,20.7,29.72,NNW,340,3.0,7.0,39,0.00,,,0.00,Wunderground v.1.15,2013-03-26 18:50:00,
2013-03-26 15:00:00,43.6,22.0,29.72,SSE,159,2.0,2.0,42,0.00,,,0.00,Wunderground v.1.15,2013-03-26 19:00:00,
2013-03-26 15:05:00,43.5,21.3,29.72,WSW,237,2.0,2.0,41,0.00,,,0.00,Wunderground v.1.15,2013-03-26 19:05:00,
2013-03-26 15:15:00,43.9,19.9,29.72,North,355,3.0,9.0,38,0.00,,,0.00,Wunderground v.1.15,2013-03-26 19:15:00,
2013-03-26 15:20:00,44.2,21.4,29.72,West,264,2.0,2.0,40,0.00,,,0.00,Wunderground v.1.15,2013-03-26 19:20:00,
2013-03-26 15:25:00,44.1,20.1,29.72,SW,236,2.0,2.0,38,0.00,,,0.00,Wunderground v.1.15,2013-03-26 19:25:00,
2013-03-26 15:30:00,44.1,21.9,29.72,NNW,347,2.0,2.0,41,0.00,,,0.00,Wunderground v.1.15,2013-03-26 19:30:00,
2013-03-26 15:40:00,44.3,22.6,29.72,NW,314,1.0,3.0,42,0.00,,,0.00,Wunderground v.1.15,2013-03-26 19:40:00,
2013-03-26 15:45:00,44.9,21.4,29.72,North,355,4.0,11.0,39,0.00,,,0.00,Wunderground v.1.15,2013-03-26 19:45:00,
2013-03-26 15:50:00,44.9,20.2,29.73,NW,321,5.0,5.0,37,0.00,,,0.00,Wunderground v.1.15,2013-03-26 19:50:00,
2013-03-26 16:00:00,43.9,21.1,29.73,NNW,339,4.0,4.0,40,0.00,,,0.00,Wunderground v.1.15,2013-03-26 20:00:00,
2013-03-26 16:05:00,43.5,23.0,29.73,WNW,287,3.0,4.0,44,0.00,,,0.00,Wunderground v.1.15,2013-03-26 20:05:00,
2013-03-26 16:15:00,42.8,20.7,29.73,NW,311,2.0,6.0,41,0.00,,,0.00,Wunderground v.1.15,2013-03-26 20:15:00,
2013-03-26 16:20:00,42.5,22.1,29.73,NNW,347,2.0,2.0,44,0.00,,,0.00,Wunderground v.1.15,2013-03-26 20:20:00,
2013-03-26 16:25:00,42.5,21.5,29.73,NNW,342,2.0,4.0,43,0.00,,,0.00,Wunderground v.1.15,2013-03-26 20:25:00,
2013-03-26 16:35:00,43.3,20.0,29.74,SW,215,2.0,2.0,39,0.00,,,0.00,Wunderground v.1.15,2013-03-26 20:35:00,
2013-03-26 16:40:00,43.5,21.3,29.73,NNE,17,2.0,3.0,41,0.00,,,0.00,Wunderground v.1.15,2013-03-26 20:40:00,
2013-03-26 16:45:00,43.6,27.6,29.73,NW,305,2.0,3.0,53,0.00,,,0.00,Wunderground v.1.15,2013-03-26 20:45:00,
2013-03-26 16:50:00,43.5,22.5,29.74,WSW,257,2.0,2.0,43,0.00,,,0.00,Wunderground v.1.15,2013-03-26 20:50:00,
2013-03-26 17:00:00,43.5,21.3,29.74,WNW,292,3.0,3.0,41,0.00,,,0.00,Wunderground v.1.15,2013-03-26 21:00:00,
2013-03-26 17:05:00,43.1,22.1,29.74,NW,318,2.0,3.0,43,0.00,,,0.00,Wunderground v.1.15,2013-03-26 21:05:00,
2013-03-26 17:15:00,42.2,22.9,29.75,NW,307,1.0,4.0,46,0.00,,,0.00,Wunderground v.1.15,2013-03-26 21:15:00,
2013-03-26 17:20:00,42.3,23.5,29.75,SSW,196,1.0,3.0,47,0.00,,,0.00,Wunderground v.1.15,2013-03-26 21:20:00,
2013-03-26 17:30:00,42.9,23.0,29.75,North,5,2.0,5.0,45,0.00,,,0.00,Wunderground v.1.15,2013-03-26 21:30:00,
2013-03-26 17:40:00,42.5,21.5,29.75,NNW,338,3.0,3.0,43,0.00,,,0.00,Wunderground v.1.15,2013-03-26 21:40:00,
2013-03-26 17:45:00,42.1,22.8,29.76,North,350,1.0,3.0,46,0.00,,,0.00,Wunderground v.1.15,2013-03-26 21:45:00,
2013-03-26 17:50:00,41.6,21.3,29.76,NNW,328,1.0,1.0,44,0.00,,,0.00,Wunderground v.1.15,2013-03-26 21:50:00,
2013-03-26 17:55:00,41.3,24.5,29.76,WNW,292,1.0,1.0,51,0.00,,,0.00,Wunderground v.1.15,2013-03-26 21:55:00,
2013-03-26 18:05:00,40.1,26.5,29.76,WNW,292,0.0,1.0,58,0.00,,,0.00,Wunderground v.1.15,2013-03-26 22:05:00,
2013-03-26 18:10:00,39.2,24.8,29.76,WNW,292,0.0,0.0,56,0.00,,,0.00,Wunderground v.1.15,2013-03-26 22:10:00,
2013-03-26 18:20:00,38.5,26.2,29.77,WNW,286,0.0,0.0,61,0.00,,,0.00,Wunderground v.1.15,2013-03-26 22:20:00,
2013-03-26 18:25:00,38.3,23.5,29.77,NW,320,0.0,0.0,55,0.00,,,0.00,Wunderground v.1.15,2013-03-26 22:25:00,
2013-03-26 18:35:00,38.0,24.9,29.77,NW,319,1.0,1.0,59,0.00,,,0.00,Wunderground v.1.15,2013-03-26 22:35:00,
2013-03-26 18:40:00,37.8,26.7,29.77,NW,319,0.0,0.0,64,0.00,,,0.00,Wunderground v.1.15,2013-03-26 22:40:00,
2013-03-26 18:45:00,37.5,26.0,29.77,NW,319,0.0,0.0,63,0.00,,,0.00,Wunderground v.1.15,2013-03-26 22:45:00,
2013-03-26 18:55:00,36.6,25.9,29.78,West,281,0.0,2.0,65,0.00,,,0.00,Wunderground v.1.15,2013-03-26 22:55:00,
2013-03-26 19:00:00,36.3,24.5,29.78,WNW,300,1.0,1.0,62,0.00,,,0.00,Wunderground v.1.15,2013-03-26 23:00:00,
2013-03-26 19:10:00,35.8,26.3,29.78,WNW,300,0.0,1.0,68,0.00,,,0.00,Wunderground v.1.15,2013-03-26 23:10:00,
2013-03-26 19:15:00,35.5,26.3,29.78,WNW,300,0.0,1.0,69,0.00,,,0.00,Wunderground v.1.15,2013-03-26 23:15:00,
2013-03-26 19:25:00,34.7,26.9,29.79,WNW,300,0.0,0.0,73,0.00,,,0.00,Wunderground v.1.15,2013-03-26 23:25:00,
2013-03-26 19:30:00,34.3,26.5,29.79,WNW,300,0.0,0.0,73,0.00,,,0.00,Wunderground v.1.15,2013-03-26 23:30:00,
2013-03-26 19:35:00,33.8,26.4,29.79,WNW,300,1.0,1.0,74,0.00,,,0.00,Wunderground v.1.15,2013-03-26 23:35:00,
2013-03-26 19:45:00,33.1,26.0,29.79,WNW,300,0.0,1.0,75,0.00,,,0.00,Wunderground v.1.15,2013-03-26 23:45:00,
2013-03-26 19:50:00,32.8,26.1,29.80,WNW,300,1.0,1.0,76,0.00,,,0.00,Wunderground v.1.15,2013-03-26 23:50:00,
2013-03-26 19:55:00,32.5,25.5,29.80,WNW,300,1.0,1.0,75,0.00,,,0.00,Wunderground v.1.15,2013-03-26 23:55:00,
2013-03-26 20:00:00,32.2,25.5,29.80,WNW,300,1.0,2.0,76,0.00,,,0.00,Wunderground v.1.15,2013-03-27 00:00:00,
2013-03-26 20:10:00,31.9,25.2,29.80,WNW,300,1.0,1.0,76,0.00,,,0.00,Wunderground v.1.15,2013-03-27 00:10:00,
2013-03-26 20:15:00,31.6,25.2,29.80,WNW,300,1.0,2.0,77,0.00,,,0.00,Wunderground v.1.15,2013-03-27 00:15:00,
2013-03-26 20:25:00,31.3,24.9,29.81,WNW,300,1.0,1.0,77,0.00,,,0.00,Wunderground v.1.15,2013-03-27 00:25:00,
2013-03-26 20:30:00,31.2,24.5,29.81,WNW,300,1.0,1.0,76,0.00,,,0.00,Wunderground v.1.15,2013-03-27 00:30:00,
2013-03-26 20:35:00,31.0,24.6,29.81,WNW,300,1.0,1.0,77,0.00,,,0.00,Wunderground v.1.15,2013-03-27 00:35:00,
2013-03-26 20:40:00,30.7,24.0,29.81,WNW,300,0.0,0.0,76,0.00,,,0.00,Wunderground v.1.15,2013-03-27 00:40:00,
2013-03-26 20:50:00,30.3,23.3,29.81,WNW,300,0.0,0.0,75,0.00,,,0.00,Wunderground v.1.15,2013-03-27 00:50:00,
2013-03-26 20:55:00,30.0,22.7,29.81,WNW,300,0.0,0.0,74,0.00,,,0.00,Wunderground v.1.15,2013-03-27 00:55:00,
2013-03-26 21:00:00,29.7,21.8,29.81,WNW,300,0.0,0.0,72,0.00,,,0.00,Wunderground v.1.15,2013-03-27 01:00:00,
2013-03-26 21:10:00,29.3,22.0,29.82,WNW,300,0.0,0.0,74,0.00,,,0.00,Wunderground v.1.15,2013-03-27 01:10:00,
2013-03-26 21:15:00,29.0,22.1,29.82,WNW,300,0.0,0.0,75,0.00,,,0.00,Wunderground v.1.15,2013-03-27 01:15:00,
2013-03-26 21:20:00,28.8,21.2,29.82,WNW,300,0.0,0.0,73,0.00,,,0.00,Wunderground v.1.15,2013-03-27 01:20:00,
2013-03-26 21:30:00,28.4,21.2,29.82,WNW,300,0.0,0.0,74,0.00,,,0.00,Wunderground v.1.15,2013-03-27 01:30:00,
2013-03-26 21:35:00,28.2,21.3,29.83,WNW,300,0.0,0.0,75,0.00,,,0.00,Wunderground v.1.15,2013-03-27 01:35:00,
2013-03-26 21:40:00,28.1,21.5,29.83,WNW,300,0.0,0.0,76,0.00,,,0.00,Wunderground v.1.15,2013-03-27 01:40:00,
2013-03-26 21:50:00,27.9,21.6,29.83,WNW,300,0.0,0.0,77,0.00,,,0.00,Wunderground v.1.15,2013-03-27 01:50:00,
2013-03-26 21:55:00,27.8,21.5,29.83,WNW,300,0.0,0.0,77,0.00,,,0.00,Wunderground v.1.15,2013-03-27 01:55:00,
2013-03-26 22:00:00,27.8,21.5,29.83,WNW,300,0.0,0.0,77,0.00,,,0.00,Wunderground v.1.15,2013-03-27 02:00:00,
2013-03-26 22:10:00,27.5,21.5,29.83,WNW,300,0.0,0.0,78,0.00,,,0.00,Wunderground v.1.15,2013-03-27 02:10:00,
2013-03-26 22:15:00,27.5,21.8,29.83,WNW,300,0.0,0.0,79,0.00,,,0.00,Wunderground v.1.15,2013-03-27 02:15:00,
2013-03-26 22:20:00,27.3,21.9,29.83,WNW,300,0.0,0.0,80,0.00,,,0.00,Wunderground v.1.15,2013-03-27 02:20:00,
2013-03-26 22:30:00,27.0,21.7,29.83,WNW,300,0.0,0.0,80,0.00,,,0.00,Wunderground v.1.15,2013-03-27 02:30:00,
2013-03-26 22:35:00,26.9,21.8,29.84,WNW,300,0.0,0.0,81,0.00,,,0.00,Wunderground v.1.15,2013-03-27 02:35:00,
2013-03-26 22:40:00,26.9,21.8,29.83,WNW,300,0.0,0.0,81,0.00,,,0.00,Wunderground v.1.15,2013-03-27 02:40:00,
2013-03-26 22:50:00,26.4,21.4,29.83,WNW,300,0.0,0.0,81,0.00,,,0.00,Wunderground v.1.15,2013-03-27 02:50:00,
2013-03-26 22:55:00,26.3,21.6,29.83,WNW,300,0.0,0.0,82,0.00,,,0.00,Wunderground v.1.15,2013-03-27 02:55:00,
2013-03-26 23:00:00,26.1,21.4,29.84,WNW,300,0.0,0.0,82,0.00,,,0.00,Wunderground v.1.15,2013-03-27 03:00:00,
2013-03-26 23:10:00,25.8,21.3,29.84,WNW,300,0.0,0.0,83,0.00,,,0.00,Wunderground v.1.15,2013-03-27 03:10:00,
2013-03-26 23:15:00,25.7,21.5,29.84,WNW,300,0.0,0.0,84,0.00,,,0.00,Wunderground v.1.15,2013-03-27 03:15:00,
2013-03-26 23:25:00,25.6,21.4,29.84,WNW,300,0.0,0.0,84,0.00,,,0.00,Wunderground v.1.15,2013-03-27 03:25:00,
2013-03-26 23:30:00,25.4,21.5,29.84,WNW,300,0.0,0.0,85,0.00,,,0.00,Wunderground v.1.15,2013-03-27 03:30:00,
2013-03-26 23:35:00,25.4,21.5,29.84,WNW,300,0.0,0.0,85,0.00,,,0.00,Wunderground v.1.15,2013-03-27 03:35:00,
2013-03-26 23:40:00,25.3,21.4,29.84,WNW,300,0.0,0.0,85,0.00,,,0.00,Wunderground v.1.15,2013-03-27 03:40:00,
2013-03-26 23:50:00,25.1,21.5,29.84,WNW,300,0.0,0.0,86,0.00,,,0.00,Wunderground v.1.15,2013-03-27 03:50:00,
2013-03-26 23:55:00,25.0,21.4,29.84,WNW,300,0.0,0.0,86,0.00,,,0.00,Wunderground v.1.15,2013-03-27 03:55:00,